sensor_id;sensor_type;location;lat;lon;timestamp;P1;durP1;ratioP1;P2;durP2;ratioP2
2724;SDS011;1370;52.596;13.112;2023-12-22T00:01:03;3.33;;;2.87;;
2724;SDS011;1370;52.596;13.112;2023-12-22T00:03:28;9.80;;;2.90;;
2724;SDS011;1370;52.596;13.112;2023-12-22T00:05:54;3.90;;;2.37;;
2724;SDS011;1370;52.596;13.112;2023-12-22T00:08:19;14.27;;;3.93;;
2724;SDS011;1370;52.596;13.112;2023-12-22T00:10:44;9.20;;;3.20;;
2724;SDS011;1370;52.596;13.112;2023-12-22T00:13:10;12.30;;;3.60;;
2724;SDS011;1370;52.596;13.112;2023-12-22T00:15:35;7.83;;;3.30;;
2724;SDS011;1370;52.596;13.112;2023-12-22T00:18:00;10.80;;;3.80;;
2724;SDS011;1370;52.596;13.112;2023-12-22T00:20:26;6.70;;;2.40;;
2724;SDS011;1370;52.596;13.112;2023-12-22T00:22:51;15.03;;;3.57;;
2724;SDS011;1370;52.596;13.112;2023-12-22T00:25:16;10.73;;;3.77;;
2724;SDS011;1370;52.596;13.112;2023-12-22T00:27:42;10.23;;;3.93;;
2724;SDS011;1370;52.596;13.112;2023-12-22T00:30:07;17.23;;;4.83;;
2724;SDS011;1370;52.596;13.112;2023-12-22T00:32:33;13.50;;;3.80;;
2724;SDS011;1370;52.596;13.112;2023-12-22T00:34:58;9.03;;;4.60;;
2724;SDS011;1370;52.596;13.112;2023-12-22T00:37:24;13.47;;;4.10;;
2724;SDS011;1370;52.596;13.112;2023-12-22T00:39:49;8.87;;;3.30;;
2724;SDS011;1370;52.596;13.112;2023-12-22T00:42:14;9.80;;;3.47;;
2724;SDS011;1370;52.596;13.112;2023-12-22T00:44:40;6.97;;;3.50;;
2724;SDS011;1370;52.596;13.112;2023-12-22T00:47:05;9.33;;;4.73;;
2724;SDS011;1370;52.596;13.112;2023-12-22T00:49:30;17.47;;;4.30;;
2724;SDS011;1370;52.596;13.112;2023-12-22T00:51:56;13.17;;;3.30;;
2724;SDS011;1370;52.596;13.112;2023-12-22T00:54:21;8.33;;;3.53;;
2724;SDS011;1370;52.596;13.112;2023-12-22T00:56:46;12.80;;;4.00;;
2724;SDS011;1370;52.596;13.112;2023-12-22T00:59:14;13.33;;;4.43;;
2724;SDS011;1370;52.596;13.112;2023-12-22T01:01:39;3.67;;;3.20;;
2724;SDS011;1370;52.596;13.112;2023-12-22T01:04:04;17.60;;;3.67;;
2724;SDS011;1370;52.596;13.112;2023-12-22T01:06:30;9.53;;;5.03;;
2724;SDS011;1370;52.596;13.112;2023-12-22T01:08:55;12.97;;;4.53;;
2724;SDS011;1370;52.596;13.112;2023-12-22T01:11:20;9.60;;;3.73;;
2724;SDS011;1370;52.596;13.112;2023-12-22T01:13:46;8.70;;;4.57;;
2724;SDS011;1370;52.596;13.112;2023-12-22T01:16:11;6.47;;;3.53;;
2724;SDS011;1370;52.596;13.112;2023-12-22T01:18:36;10.23;;;5.13;;
2724;SDS011;1370;52.596;13.112;2023-12-22T01:21:02;5.00;;;3.17;;
2724;SDS011;1370;52.596;13.112;2023-12-22T01:23:27;6.33;;;3.13;;
2724;SDS011;1370;52.596;13.112;2023-12-22T01:25:53;8.70;;;4.20;;
2724;SDS011;1370;52.596;13.112;2023-12-22T01:28:21;7.30;;;3.20;;
2724;SDS011;1370;52.596;13.112;2023-12-22T01:30:46;11.50;;;4.00;;
2724;SDS011;1370;52.596;13.112;2023-12-22T01:33:12;8.33;;;2.90;;
2724;SDS011;1370;52.596;13.112;2023-12-22T01:35:37;7.63;;;3.00;;
2724;SDS011;1370;52.596;13.112;2023-12-22T01:38:03;7.30;;;3.97;;
2724;SDS011;1370;52.596;13.112;2023-12-22T01:40:28;19.97;;;4.80;;
2724;SDS011;1370;52.596;13.112;2023-12-22T01:42:53;9.70;;;4.90;;
2724;SDS011;1370;52.596;13.112;2023-12-22T01:45:19;18.03;;;4.20;;
2724;SDS011;1370;52.596;13.112;2023-12-22T01:47:45;10.43;;;5.07;;
2724;SDS011;1370;52.596;13.112;2023-12-22T01:50:11;5.03;;;3.00;;
2724;SDS011;1370;52.596;13.112;2023-12-22T01:52:37;14.67;;;3.60;;
2724;SDS011;1370;52.596;13.112;2023-12-22T01:55:04;9.10;;;3.97;;
2724;SDS011;1370;52.596;13.112;2023-12-22T01:57:30;15.10;;;4.03;;
2724;SDS011;1370;52.596;13.112;2023-12-22T01:59:55;12.40;;;4.10;;
2724;SDS011;1370;52.596;13.112;2023-12-22T02:02:21;8.67;;;3.80;;
2724;SDS011;1370;52.596;13.112;2023-12-22T02:04:47;13.97;;;3.63;;
2724;SDS011;1370;52.596;13.112;2023-12-22T02:07:13;9.43;;;3.57;;
2724;SDS011;1370;52.596;13.112;2023-12-22T02:09:38;19.73;;;3.90;;
2724;SDS011;1370;52.596;13.112;2023-12-22T02:12:03;10.67;;;3.70;;
2724;SDS011;1370;52.596;13.112;2023-12-22T02:14:29;13.77;;;3.10;;
2724;SDS011;1370;52.596;13.112;2023-12-22T02:22:03;10.80;;;3.27;;
2724;SDS011;1370;52.596;13.112;2023-12-22T02:24:30;7.97;;;3.40;;
2724;SDS011;1370;52.596;13.112;2023-12-22T02:29:42;15.63;;;3.63;;
2724;SDS011;1370;52.596;13.112;2023-12-22T02:32:14;7.40;;;2.90;;
2724;SDS011;1370;52.596;13.112;2023-12-22T02:34:45;20.93;;;4.90;;
2724;SDS011;1370;52.596;13.112;2023-12-22T02:37:12;9.43;;;4.97;;
2724;SDS011;1370;52.596;13.112;2023-12-22T02:39:38;18.20;;;5.80;;
2724;SDS011;1370;52.596;13.112;2023-12-22T02:42:04;6.63;;;3.10;;
2724;SDS011;1370;52.596;13.112;2023-12-22T02:44:30;8.47;;;2.70;;
2724;SDS011;1370;52.596;13.112;2023-12-22T02:46:56;6.43;;;3.37;;
2724;SDS011;1370;52.596;13.112;2023-12-22T02:49:21;10.13;;;3.20;;
2724;SDS011;1370;52.596;13.112;2023-12-22T02:51:47;19.33;;;4.13;;
2724;SDS011;1370;52.596;13.112;2023-12-22T02:54:12;7.73;;;2.60;;
2724;SDS011;1370;52.596;13.112;2023-12-22T02:56:37;3.37;;;2.27;;
2724;SDS011;1370;52.596;13.112;2023-12-22T02:59:03;6.80;;;2.90;;
2724;SDS011;1370;52.596;13.112;2023-12-22T03:01:28;6.40;;;2.17;;
2724;SDS011;1370;52.596;13.112;2023-12-22T03:03:53;9.43;;;2.70;;
2724;SDS011;1370;52.596;13.112;2023-12-22T03:06:19;5.97;;;2.30;;
2724;SDS011;1370;52.596;13.112;2023-12-22T03:08:47;8.13;;;3.10;;
2724;SDS011;1370;52.596;13.112;2023-12-22T03:11:12;12.20;;;3.57;;
2724;SDS011;1370;52.596;13.112;2023-12-22T03:13:40;6.80;;;3.30;;
2724;SDS011;1370;52.596;13.112;2023-12-22T03:16:08;4.40;;;2.40;;
2724;SDS011;1370;52.596;13.112;2023-12-22T03:18:34;9.87;;;2.00;;
2724;SDS011;1370;52.596;13.112;2023-12-22T03:20:59;9.87;;;2.43;;
2724;SDS011;1370;52.596;13.112;2023-12-22T03:23:24;4.50;;;2.10;;
2724;SDS011;1370;52.596;13.112;2023-12-22T03:25:50;4.47;;;2.40;;
2724;SDS011;1370;52.596;13.112;2023-12-22T03:28:15;6.07;;;2.57;;
2724;SDS011;1370;52.596;13.112;2023-12-22T03:30:40;8.73;;;5.03;;
2724;SDS011;1370;52.596;13.112;2023-12-22T03:33:06;3.43;;;1.70;;
2724;SDS011;1370;52.596;13.112;2023-12-22T03:35:31;2.60;;;2.23;;
2724;SDS011;1370;52.596;13.112;2023-12-22T03:37:56;4.30;;;2.70;;
2724;SDS011;1370;52.596;13.112;2023-12-22T03:40:22;9.27;;;2.53;;
2724;SDS011;1370;52.596;13.112;2023-12-22T03:42:47;4.00;;;2.60;;
2724;SDS011;1370;52.596;13.112;2023-12-22T03:45:12;6.63;;;2.53;;
2724;SDS011;1370;52.596;13.112;2023-12-22T03:47:38;8.73;;;2.67;;
2724;SDS011;1370;52.596;13.112;2023-12-22T03:50:03;4.00;;;2.40;;
2724;SDS011;1370;52.596;13.112;2023-12-22T03:52:28;6.80;;;2.37;;
2724;SDS011;1370;52.596;13.112;2023-12-22T03:54:54;5.73;;;2.33;;
2724;SDS011;1370;52.596;13.112;2023-12-22T03:57:19;3.97;;;1.73;;
2724;SDS011;1370;52.596;13.112;2023-12-22T03:59:44;4.63;;;1.70;;
2724;SDS011;1370;52.596;13.112;2023-12-22T04:02:10;4.07;;;1.30;;
2724;SDS011;1370;52.596;13.112;2023-12-22T04:04:38;3.40;;;1.40;;
2724;SDS011;1370;52.596;13.112;2023-12-22T04:07:04;1.30;;;0.90;;
2724;SDS011;1370;52.596;13.112;2023-12-22T04:09:29;1.60;;;1.33;;
2724;SDS011;1370;52.596;13.112;2023-12-22T04:11:54;6.53;;;1.30;;
2724;SDS011;1370;52.596;13.112;2023-12-22T04:14:20;1.83;;;1.73;;
2724;SDS011;1370;52.596;13.112;2023-12-22T04:16:45;2.57;;;2.03;;
2724;SDS011;1370;52.596;13.112;2023-12-22T04:19:10;1.93;;;1.60;;
2724;SDS011;1370;52.596;13.112;2023-12-22T04:21:36;5.07;;;1.40;;
2724;SDS011;1370;52.596;13.112;2023-12-22T04:24:01;5.03;;;2.20;;
2724;SDS011;1370;52.596;13.112;2023-12-22T04:26:26;3.67;;;1.70;;
2724;SDS011;1370;52.596;13.112;2023-12-22T04:28:51;5.37;;;1.73;;
2724;SDS011;1370;52.596;13.112;2023-12-22T04:31:17;4.63;;;1.80;;
2724;SDS011;1370;52.596;13.112;2023-12-22T04:33:45;1.97;;;1.50;;
2724;SDS011;1370;52.596;13.112;2023-12-22T04:36:10;5.53;;;2.77;;
2724;SDS011;1370;52.596;13.112;2023-12-22T04:38:35;6.67;;;1.43;;
2724;SDS011;1370;52.596;13.112;2023-12-22T04:41:00;2.80;;;1.13;;
2724;SDS011;1370;52.596;13.112;2023-12-22T04:43:26;3.10;;;1.40;;
2724;SDS011;1370;52.596;13.112;2023-12-22T04:45:51;1.67;;;1.50;;
2724;SDS011;1370;52.596;13.112;2023-12-22T04:48:16;1.50;;;1.30;;
2724;SDS011;1370;52.596;13.112;2023-12-22T04:50:42;5.67;;;1.33;;
2724;SDS011;1370;52.596;13.112;2023-12-22T04:53:07;5.70;;;3.07;;
2724;SDS011;1370;52.596;13.112;2023-12-22T04:55:32;2.90;;;1.33;;
2724;SDS011;1370;52.596;13.112;2023-12-22T04:57:58;2.63;;;1.50;;
2724;SDS011;1370;52.596;13.112;2023-12-22T05:00:23;8.80;;;1.40;;
2724;SDS011;1370;52.596;13.112;2023-12-22T05:02:50;3.30;;;1.17;;
2724;SDS011;1370;52.596;13.112;2023-12-22T05:05:15;2.60;;;1.03;;
2724;SDS011;1370;52.596;13.112;2023-12-22T05:07:40;1.80;;;1.07;;
2724;SDS011;1370;52.596;13.112;2023-12-22T05:10:06;5.37;;;1.27;;
2724;SDS011;1370;52.596;13.112;2023-12-22T05:12:31;1.80;;;1.07;;
2724;SDS011;1370;52.596;13.112;2023-12-22T05:14:57;1.43;;;1.00;;
2724;SDS011;1370;52.596;13.112;2023-12-22T05:17:22;4.03;;;1.20;;
2724;SDS011;1370;52.596;13.112;2023-12-22T05:19:47;2.30;;;1.50;;
2724;SDS011;1370;52.596;13.112;2023-12-22T05:22:13;2.57;;;1.47;;
2724;SDS011;1370;52.596;13.112;2023-12-22T05:24:38;2.10;;;1.50;;
2724;SDS011;1370;52.596;13.112;2023-12-22T05:27:03;1.60;;;1.33;;
2724;SDS011;1370;52.596;13.112;2023-12-22T05:29:29;2.20;;;1.37;;
2724;SDS011;1370;52.596;13.112;2023-12-22T05:31:54;1.70;;;1.50;;
2724;SDS011;1370;52.596;13.112;2023-12-22T05:34:19;2.47;;;1.40;;
2724;SDS011;1370;52.596;13.112;2023-12-22T05:36:45;5.10;;;1.93;;
2724;SDS011;1370;52.596;13.112;2023-12-22T05:39:10;3.80;;;1.60;;
2724;SDS011;1370;52.596;13.112;2023-12-22T05:41:35;7.23;;;1.77;;
2724;SDS011;1370;52.596;13.112;2023-12-22T05:44:04;4.23;;;1.50;;
2724;SDS011;1370;52.596;13.112;2023-12-22T05:46:30;3.20;;;1.20;;
2724;SDS011;1370;52.596;13.112;2023-12-22T05:48:56;2.90;;;1.77;;
2724;SDS011;1370;52.596;13.112;2023-12-22T05:51:24;5.20;;;1.53;;
2724;SDS011;1370;52.596;13.112;2023-12-22T05:53:49;1.60;;;1.40;;
2724;SDS011;1370;52.596;13.112;2023-12-22T05:56:19;3.20;;;1.70;;
2724;SDS011;1370;52.596;13.112;2023-12-22T05:58:45;2.87;;;1.20;;
2724;SDS011;1370;52.596;13.112;2023-12-22T06:01:14;9.83;;;1.40;;
2724;SDS011;1370;52.596;13.112;2023-12-22T06:03:42;3.20;;;1.27;;
2724;SDS011;1370;52.596;13.112;2023-12-22T06:06:07;7.37;;;1.83;;
2724;SDS011;1370;52.596;13.112;2023-12-22T06:08:32;2.80;;;1.70;;
2724;SDS011;1370;52.596;13.112;2023-12-22T06:10:58;2.27;;;1.50;;
2724;SDS011;1370;52.596;13.112;2023-12-22T06:13:23;9.37;;;1.57;;
2724;SDS011;1370;52.596;13.112;2023-12-22T06:15:49;3.40;;;1.43;;
2724;SDS011;1370;52.596;13.112;2023-12-22T06:18:14;7.13;;;1.40;;
2724;SDS011;1370;52.596;13.112;2023-12-22T06:20:40;3.47;;;1.40;;
2724;SDS011;1370;52.596;13.112;2023-12-22T06:23:05;1.23;;;1.00;;
2724;SDS011;1370;52.596;13.112;2023-12-22T06:25:30;5.93;;;1.60;;
2724;SDS011;1370;52.596;13.112;2023-12-22T06:27:56;2.43;;;0.80;;
2724;SDS011;1370;52.596;13.112;2023-12-22T06:30:21;3.13;;;1.10;;
2724;SDS011;1370;52.596;13.112;2023-12-22T06:32:46;4.70;;;1.20;;
2724;SDS011;1370;52.596;13.112;2023-12-22T06:35:12;5.57;;;1.83;;
2724;SDS011;1370;52.596;13.112;2023-12-22T06:37:38;7.03;;;1.50;;
2724;SDS011;1370;52.596;13.112;2023-12-22T06:40:03;2.63;;;1.40;;
2724;SDS011;1370;52.596;13.112;2023-12-22T06:42:29;3.23;;;1.50;;
2724;SDS011;1370;52.596;13.112;2023-12-22T06:44:55;2.07;;;1.30;;
2724;SDS011;1370;52.596;13.112;2023-12-22T06:47:20;5.27;;;2.70;;
2724;SDS011;1370;52.596;13.112;2023-12-22T06:49:45;4.87;;;1.83;;
2724;SDS011;1370;52.596;13.112;2023-12-22T06:52:11;1.43;;;1.27;;
2724;SDS011;1370;52.596;13.112;2023-12-22T06:54:36;2.80;;;1.47;;
2724;SDS011;1370;52.596;13.112;2023-12-22T06:57:01;2.87;;;1.50;;
2724;SDS011;1370;52.596;13.112;2023-12-22T06:59:26;2.10;;;1.80;;
2724;SDS011;1370;52.596;13.112;2023-12-22T07:01:52;3.83;;;2.47;;
2724;SDS011;1370;52.596;13.112;2023-12-22T07:04:17;6.97;;;1.40;;
2724;SDS011;1370;52.596;13.112;2023-12-22T07:06:42;9.80;;;2.10;;
2724;SDS011;1370;52.596;13.112;2023-12-22T07:11:48;5.90;;;1.73;;
2724;SDS011;1370;52.596;13.112;2023-12-22T07:14:15;17.10;;;1.80;;
2724;SDS011;1370;52.596;13.112;2023-12-22T07:16:40;7.47;;;1.93;;
2724;SDS011;1370;52.596;13.112;2023-12-22T07:19:07;5.47;;;1.87;;
2724;SDS011;1370;52.596;13.112;2023-12-22T07:21:32;2.80;;;1.50;;
2724;SDS011;1370;52.596;13.112;2023-12-22T07:23:57;5.70;;;1.80;;
2724;SDS011;1370;52.596;13.112;2023-12-22T07:26:23;5.20;;;1.67;;
2724;SDS011;1370;52.596;13.112;2023-12-22T07:28:49;5.67;;;1.40;;
2724;SDS011;1370;52.596;13.112;2023-12-22T07:31:15;4.23;;;1.80;;
2724;SDS011;1370;52.596;13.112;2023-12-22T07:33:40;5.67;;;1.53;;
2724;SDS011;1370;52.596;13.112;2023-12-22T07:36:06;5.20;;;1.50;;
2724;SDS011;1370;52.596;13.112;2023-12-22T07:38:32;3.40;;;1.60;;
2724;SDS011;1370;52.596;13.112;2023-12-22T07:41:00;4.10;;;1.57;;
2724;SDS011;1370;52.596;13.112;2023-12-22T07:43:25;3.77;;;1.60;;
2724;SDS011;1370;52.596;13.112;2023-12-22T07:45:51;6.77;;;2.37;;
2724;SDS011;1370;52.596;13.112;2023-12-22T07:48:16;4.00;;;1.53;;
2724;SDS011;1370;52.596;13.112;2023-12-22T07:50:42;4.60;;;2.13;;
2724;SDS011;1370;52.596;13.112;2023-12-22T07:53:07;9.00;;;2.33;;
2724;SDS011;1370;52.596;13.112;2023-12-22T07:55:33;2.10;;;1.33;;
2724;SDS011;1370;52.596;13.112;2023-12-22T07:57:59;14.23;;;3.27;;
2724;SDS011;1370;52.596;13.112;2023-12-22T08:00:24;4.70;;;1.70;;
2724;SDS011;1370;52.596;13.112;2023-12-22T08:02:49;5.27;;;2.33;;
2724;SDS011;1370;52.596;13.112;2023-12-22T08:05:15;1.40;;;1.10;;
2724;SDS011;1370;52.596;13.112;2023-12-22T08:07:40;1.60;;;1.23;;
2724;SDS011;1370;52.596;13.112;2023-12-22T08:10:06;1.80;;;1.50;;
2724;SDS011;1370;52.596;13.112;2023-12-22T08:12:31;2.97;;;1.30;;
2724;SDS011;1370;52.596;13.112;2023-12-22T08:14:57;2.57;;;1.10;;
2724;SDS011;1370;52.596;13.112;2023-12-22T08:17:23;3.60;;;0.90;;
2724;SDS011;1370;52.596;13.112;2023-12-22T08:19:48;5.33;;;1.20;;
2724;SDS011;1370;52.596;13.112;2023-12-22T08:22:14;5.43;;;1.30;;
2724;SDS011;1370;52.596;13.112;2023-12-22T08:24:40;1.97;;;1.43;;
2724;SDS011;1370;52.596;13.112;2023-12-22T08:27:06;2.00;;;1.83;;
2724;SDS011;1370;52.596;13.112;2023-12-22T08:29:32;2.53;;;1.37;;
2724;SDS011;1370;52.596;13.112;2023-12-22T08:31:57;6.50;;;1.80;;
2724;SDS011;1370;52.596;13.112;2023-12-22T08:34:23;3.60;;;1.60;;
2724;SDS011;1370;52.596;13.112;2023-12-22T08:36:49;3.57;;;1.87;;
2724;SDS011;1370;52.596;13.112;2023-12-22T08:39:14;5.93;;;1.73;;
2724;SDS011;1370;52.596;13.112;2023-12-22T08:41:39;2.57;;;1.70;;
2724;SDS011;1370;52.596;13.112;2023-12-22T08:44:05;5.93;;;1.30;;
2724;SDS011;1370;52.596;13.112;2023-12-22T08:46:34;2.37;;;1.67;;
2724;SDS011;1370;52.596;13.112;2023-12-22T08:48:59;3.20;;;1.70;;
2724;SDS011;1370;52.596;13.112;2023-12-22T08:51:25;5.40;;;2.40;;
2724;SDS011;1370;52.596;13.112;2023-12-22T08:53:51;6.87;;;2.87;;
2724;SDS011;1370;52.596;13.112;2023-12-22T08:56:17;6.03;;;1.87;;
2724;SDS011;1370;52.596;13.112;2023-12-22T08:58:46;5.50;;;1.80;;
2724;SDS011;1370;52.596;13.112;2023-12-22T09:01:15;12.37;;;2.57;;
2724;SDS011;1370;52.596;13.112;2023-12-22T09:03:43;4.47;;;2.40;;
2724;SDS011;1370;52.596;13.112;2023-12-22T09:06:13;9.13;;;2.80;;
2724;SDS011;1370;52.596;13.112;2023-12-22T09:08:42;14.57;;;2.20;;
2724;SDS011;1370;52.596;13.112;2023-12-22T09:11:07;9.33;;;2.00;;
2724;SDS011;1370;52.596;13.112;2023-12-22T09:13:33;16.47;;;2.33;;
2724;SDS011;1370;52.596;13.112;2023-12-22T09:16:01;6.50;;;2.93;;
2724;SDS011;1370;52.596;13.112;2023-12-22T09:18:27;8.20;;;2.40;;
2724;SDS011;1370;52.596;13.112;2023-12-22T09:20:52;4.30;;;2.60;;
2724;SDS011;1370;52.596;13.112;2023-12-22T09:23:18;9.87;;;2.30;;
2724;SDS011;1370;52.596;13.112;2023-12-22T09:25:43;7.23;;;2.90;;
2724;SDS011;1370;52.596;13.112;2023-12-22T09:28:11;5.83;;;2.70;;
2724;SDS011;1370;52.596;13.112;2023-12-22T09:30:37;4.70;;;2.43;;
2724;SDS011;1370;52.596;13.112;2023-12-22T09:33:02;9.33;;;3.40;;
2724;SDS011;1370;52.596;13.112;2023-12-22T09:35:27;7.63;;;2.67;;
2724;SDS011;1370;52.596;13.112;2023-12-22T09:37:54;9.67;;;2.43;;
2724;SDS011;1370;52.596;13.112;2023-12-22T09:40:19;13.03;;;3.37;;
2724;SDS011;1370;52.596;13.112;2023-12-22T09:42:46;3.93;;;3.30;;
2724;SDS011;1370;52.596;13.112;2023-12-22T09:45:12;14.30;;;3.47;;
2724;SDS011;1370;52.596;13.112;2023-12-22T09:47:39;3.50;;;2.23;;
2724;SDS011;1370;52.596;13.112;2023-12-22T09:50:06;6.70;;;2.70;;
2724;SDS011;1370;52.596;13.112;2023-12-22T09:52:32;8.33;;;2.93;;
2724;SDS011;1370;52.596;13.112;2023-12-22T09:55:00;13.73;;;2.63;;
2724;SDS011;1370;52.596;13.112;2023-12-22T09:57:27;14.43;;;4.90;;
2724;SDS011;1370;52.596;13.112;2023-12-22T09:59:53;11.33;;;2.87;;
2724;SDS011;1370;52.596;13.112;2023-12-22T10:02:18;9.27;;;2.97;;
2724;SDS011;1370;52.596;13.112;2023-12-22T10:04:43;7.07;;;3.03;;
2724;SDS011;1370;52.596;13.112;2023-12-22T10:07:10;12.97;;;3.53;;
2724;SDS011;1370;52.596;13.112;2023-12-22T10:09:38;9.93;;;4.03;;
2724;SDS011;1370;52.596;13.112;2023-12-22T10:12:04;22.97;;;4.50;;
2724;SDS011;1370;52.596;13.112;2023-12-22T10:14:30;12.03;;;2.80;;
2724;SDS011;1370;52.596;13.112;2023-12-22T10:16:56;19.90;;;4.90;;
2724;SDS011;1370;52.596;13.112;2023-12-22T10:19:22;4.80;;;3.20;;
2724;SDS011;1370;52.596;13.112;2023-12-22T10:21:50;24.93;;;4.67;;
2724;SDS011;1370;52.596;13.112;2023-12-22T10:27:11;7.57;;;2.77;;
2724;SDS011;1370;52.596;13.112;2023-12-22T10:29:37;7.87;;;4.23;;
2724;SDS011;1370;52.596;13.112;2023-12-22T10:32:02;13.30;;;3.53;;
2724;SDS011;1370;52.596;13.112;2023-12-22T10:34:29;32.97;;;6.63;;
2724;SDS011;1370;52.596;13.112;2023-12-22T10:36:54;11.20;;;3.30;;
2724;SDS011;1370;52.596;13.112;2023-12-22T10:39:20;7.97;;;3.43;;
2724;SDS011;1370;52.596;13.112;2023-12-22T10:41:46;7.47;;;2.73;;
2724;SDS011;1370;52.596;13.112;2023-12-22T10:44:14;6.73;;;2.97;;
2724;SDS011;1370;52.596;13.112;2023-12-22T10:46:39;10.50;;;3.70;;
2724;SDS011;1370;52.596;13.112;2023-12-22T10:49:05;15.40;;;3.57;;
2724;SDS011;1370;52.596;13.112;2023-12-22T10:51:33;9.10;;;3.60;;
2724;SDS011;1370;52.596;13.112;2023-12-22T10:53:58;13.83;;;5.30;;
2724;SDS011;1370;52.596;13.112;2023-12-22T10:56:27;7.50;;;2.63;;
2724;SDS011;1370;52.596;13.112;2023-12-22T10:58:53;3.20;;;2.47;;
2724;SDS011;1370;52.596;13.112;2023-12-22T11:01:18;13.00;;;3.40;;
2724;SDS011;1370;52.596;13.112;2023-12-22T11:03:46;7.33;;;2.90;;
2724;SDS011;1370;52.596;13.112;2023-12-22T11:06:13;9.83;;;3.17;;
2724;SDS011;1370;52.596;13.112;2023-12-22T11:08:41;8.47;;;3.43;;
2724;SDS011;1370;52.596;13.112;2023-12-22T11:11:12;11.10;;;2.60;;
2724;SDS011;1370;52.596;13.112;2023-12-22T11:13:40;14.70;;;2.97;;
2724;SDS011;1370;52.596;13.112;2023-12-22T11:16:17;7.73;;;2.80;;
2724;SDS011;1370;52.596;13.112;2023-12-22T11:19:03;14.30;;;3.53;;
2724;SDS011;1370;52.596;13.112;2023-12-22T11:21:32;11.07;;;2.70;;
2724;SDS011;1370;52.596;13.112;2023-12-22T11:23:57;3.37;;;2.17;;
2724;SDS011;1370;52.596;13.112;2023-12-22T11:26:23;3.70;;;2.23;;
2724;SDS011;1370;52.596;13.112;2023-12-22T11:28:55;8.70;;;3.10;;
2724;SDS011;1370;52.596;13.112;2023-12-22T11:31:25;3.13;;;2.57;;
2724;SDS011;1370;52.596;13.112;2023-12-22T11:33:51;4.00;;;2.10;;
2724;SDS011;1370;52.596;13.112;2023-12-22T11:36:17;6.37;;;2.27;;
2724;SDS011;1370;52.596;13.112;2023-12-22T11:38:43;10.17;;;3.23;;
2724;SDS011;1370;52.596;13.112;2023-12-22T11:41:10;9.13;;;2.13;;
2724;SDS011;1370;52.596;13.112;2023-12-22T11:43:50;8.67;;;3.10;;
2724;SDS011;1370;52.596;13.112;2023-12-22T11:46:18;7.53;;;3.03;;
2724;SDS011;1370;52.596;13.112;2023-12-22T11:48:47;8.30;;;2.23;;
2724;SDS011;1370;52.596;13.112;2023-12-22T11:51:13;14.17;;;3.10;;
2724;SDS011;1370;52.596;13.112;2023-12-22T11:53:39;7.63;;;2.80;;
2724;SDS011;1370;52.596;13.112;2023-12-22T11:56:05;5.63;;;2.37;;
2724;SDS011;1370;52.596;13.112;2023-12-22T11:58:42;7.67;;;2.40;;
2724;SDS011;1370;52.596;13.112;2023-12-22T12:01:16;4.67;;;1.73;;
2724;SDS011;1370;52.596;13.112;2023-12-22T12:03:47;6.73;;;2.70;;
2724;SDS011;1370;52.596;13.112;2023-12-22T12:08:38;6.10;;;3.10;;
2724;SDS011;1370;52.596;13.112;2023-12-22T12:11:03;6.60;;;2.17;;
2724;SDS011;1370;52.596;13.112;2023-12-22T12:13:30;5.90;;;3.20;;
2724;SDS011;1370;52.596;13.112;2023-12-22T12:15:56;5.70;;;2.73;;
2724;SDS011;1370;52.596;13.112;2023-12-22T12:18:24;7.80;;;2.47;;
2724;SDS011;1370;52.596;13.112;2023-12-22T12:20:52;6.80;;;2.40;;
2724;SDS011;1370;52.596;13.112;2023-12-22T12:23:18;6.43;;;2.90;;
2724;SDS011;1370;52.596;13.112;2023-12-22T12:25:43;7.63;;;2.47;;
2724;SDS011;1370;52.596;13.112;2023-12-22T12:28:08;3.07;;;2.80;;
2724;SDS011;1370;52.596;13.112;2023-12-22T12:30:34;10.30;;;3.13;;
2724;SDS011;1370;52.596;13.112;2023-12-22T12:33:07;8.80;;;4.33;;
2724;SDS011;1370;52.596;13.112;2023-12-22T12:35:33;9.37;;;4.07;;
2724;SDS011;1370;52.596;13.112;2023-12-22T12:37:59;7.77;;;2.43;;
2724;SDS011;1370;52.596;13.112;2023-12-22T12:40:24;11.47;;;2.27;;
2724;SDS011;1370;52.596;13.112;2023-12-22T12:42:54;10.40;;;3.20;;
2724;SDS011;1370;52.596;13.112;2023-12-22T12:45:22;12.87;;;3.20;;
2724;SDS011;1370;52.596;13.112;2023-12-22T12:50:21;7.27;;;3.20;;
2724;SDS011;1370;52.596;13.112;2023-12-22T12:52:47;10.80;;;3.07;;
2724;SDS011;1370;52.596;13.112;2023-12-22T12:55:12;12.50;;;3.37;;
2724;SDS011;1370;52.596;13.112;2023-12-22T12:57:40;3.67;;;2.17;;
2724;SDS011;1370;52.596;13.112;2023-12-22T13:00:06;20.27;;;3.37;;
2724;SDS011;1370;52.596;13.112;2023-12-22T13:02:35;10.83;;;5.10;;
2724;SDS011;1370;52.596;13.112;2023-12-22T13:05:00;17.93;;;3.00;;
2724;SDS011;1370;52.596;13.112;2023-12-22T13:07:29;17.00;;;5.30;;
2724;SDS011;1370;52.596;13.112;2023-12-22T13:09:55;14.83;;;2.60;;
2724;SDS011;1370;52.596;13.112;2023-12-22T13:12:22;7.23;;;3.00;;
2724;SDS011;1370;52.596;13.112;2023-12-22T13:14:48;5.43;;;2.17;;
2724;SDS011;1370;52.596;13.112;2023-12-22T13:17:13;9.57;;;3.73;;
2724;SDS011;1370;52.596;13.112;2023-12-22T13:19:39;7.93;;;2.70;;
2724;SDS011;1370;52.596;13.112;2023-12-22T13:22:04;9.03;;;3.37;;
2724;SDS011;1370;52.596;13.112;2023-12-22T13:24:29;4.83;;;2.43;;
2724;SDS011;1370;52.596;13.112;2023-12-22T13:26:59;9.20;;;3.23;;
2724;SDS011;1370;52.596;13.112;2023-12-22T13:29:28;8.83;;;3.60;;
2724;SDS011;1370;52.596;13.112;2023-12-22T13:31:54;8.30;;;2.77;;
2724;SDS011;1370;52.596;13.112;2023-12-22T13:34:19;6.37;;;3.80;;
2724;SDS011;1370;52.596;13.112;2023-12-22T13:36:45;8.30;;;3.50;;
2724;SDS011;1370;52.596;13.112;2023-12-22T13:39:10;8.30;;;3.20;;
2724;SDS011;1370;52.596;13.112;2023-12-22T13:41:41;9.87;;;3.77;;
2724;SDS011;1370;52.596;13.112;2023-12-22T13:44:10;12.80;;;3.37;;
2724;SDS011;1370;52.596;13.112;2023-12-22T13:46:38;15.47;;;3.57;;
2724;SDS011;1370;52.596;13.112;2023-12-22T13:49:06;3.40;;;2.50;;
2724;SDS011;1370;52.596;13.112;2023-12-22T13:51:44;6.90;;;2.50;;
2724;SDS011;1370;52.596;13.112;2023-12-22T13:54:18;8.23;;;3.43;;
2724;SDS011;1370;52.596;13.112;2023-12-22T13:56:43;8.67;;;2.80;;
2724;SDS011;1370;52.596;13.112;2023-12-22T13:59:13;6.10;;;2.70;;
2724;SDS011;1370;52.596;13.112;2023-12-22T14:01:41;11.13;;;3.73;;
2724;SDS011;1370;52.596;13.112;2023-12-22T14:04:10;6.67;;;2.60;;
2724;SDS011;1370;52.596;13.112;2023-12-22T14:06:35;10.17;;;3.37;;
2724;SDS011;1370;52.596;13.112;2023-12-22T14:09:02;13.93;;;4.70;;
2724;SDS011;1370;52.596;13.112;2023-12-22T14:11:28;13.07;;;2.90;;
2724;SDS011;1370;52.596;13.112;2023-12-22T14:13:54;6.50;;;3.10;;
2724;SDS011;1370;52.596;13.112;2023-12-22T14:16:20;4.33;;;1.77;;
2724;SDS011;1370;52.596;13.112;2023-12-22T14:18:45;6.23;;;2.40;;
2724;SDS011;1370;52.596;13.112;2023-12-22T14:21:11;4.17;;;2.33;;
2724;SDS011;1370;52.596;13.112;2023-12-22T14:23:36;7.80;;;2.50;;
2724;SDS011;1370;52.596;13.112;2023-12-22T14:26:01;13.77;;;2.17;;
2724;SDS011;1370;52.596;13.112;2023-12-22T14:28:27;2.73;;;2.40;;
2724;SDS011;1370;52.596;13.112;2023-12-22T14:30:52;5.13;;;2.30;;
2724;SDS011;1370;52.596;13.112;2023-12-22T14:33:18;4.20;;;2.07;;
2724;SDS011;1370;52.596;13.112;2023-12-22T14:35:43;2.10;;;1.63;;
2724;SDS011;1370;52.596;13.112;2023-12-22T14:38:11;3.43;;;1.40;;
2724;SDS011;1370;52.596;13.112;2023-12-22T14:40:37;7.83;;;2.20;;
2724;SDS011;1370;52.596;13.112;2023-12-22T14:43:02;4.30;;;1.67;;
2724;SDS011;1370;52.596;13.112;2023-12-22T14:45:28;2.43;;;2.13;;
2724;SDS011;1370;52.596;13.112;2023-12-22T14:47:54;1.80;;;1.30;;
2724;SDS011;1370;52.596;13.112;2023-12-22T14:50:19;4.27;;;1.73;;
2724;SDS011;1370;52.596;13.112;2023-12-22T14:52:45;7.37;;;2.70;;
2724;SDS011;1370;52.596;13.112;2023-12-22T14:55:10;7.43;;;1.90;;
2724;SDS011;1370;52.596;13.112;2023-12-22T14:57:36;1.83;;;1.57;;
2724;SDS011;1370;52.596;13.112;2023-12-22T15:00:01;10.70;;;3.33;;
2724;SDS011;1370;52.596;13.112;2023-12-22T15:02:26;5.70;;;2.23;;
2724;SDS011;1370;52.596;13.112;2023-12-22T15:04:52;3.23;;;2.40;;
2724;SDS011;1370;52.596;13.112;2023-12-22T15:07:18;3.30;;;3.00;;
2724;SDS011;1370;52.596;13.112;2023-12-22T15:09:46;5.77;;;1.97;;